Time;durP1;ratioP1;P1;durP2;ratioP2;P2;SDS_P1;SDS_P2;PMS_P1;PMS_P2;Temp;Humidity;BMP_temperature;BMP_pressure;BME280_temperature;BME280_humidity;BME280_pressure;Samples;Min_cycle;Max_cycle;Signal;HPM_P1;HPM_P2
2023/12/16 00:00:48;;;;;;;5.40;4.10;;;;;;;-143.21;92.55;74164.91;5028257;28;20222;-80
2023/12/16 00:03:15;;;;;;;5.73;4.40;;;;;;;-143.21;92.44;74162.91;5030828;28;20200;-79
2023/12/16 00:05:42;;;;;;;8.57;6.73;;;;;;;-143.21;92.68;74151.00;5028630;28;20684;-80
2023/12/16 00:08:09;;;;;;;8.37;6.60;;;;;;;-143.21;92.48;74151.00;5028798;28;20298;-81
2023/12/16 00:10:37;;;;;;;7.90;6.60;;;;;;;-143.21;92.39;74164.91;5025618;28;20199;-81
2023/12/16 00:13:04;;;;;;;7.30;6.00;;;;;;;-143.21;91.81;74170.84;5030958;28;20596;-80
2023/12/16 00:15:30;;;;;;;8.10;5.97;;;;;;;-143.21;92.24;74174.81;5029299;28;20208;-82
2023/12/16 00:17:57;;;;;;;7.93;6.07;;;;;;;-143.21;92.47;74180.78;5029248;28;20230;-81
2023/12/16 00:20:24;;;;;;;8.23;6.00;;;;;;;-143.21;92.51;74186.72;5028925;28;20205;-87
2023/12/16 00:22:51;;;;;;;7.20;6.00;;;;;;;-143.21;92.57;74182.75;5028558;28;20713;-78
2023/12/16 00:25:18;;;;;;;6.37;5.03;;;;;;;-143.21;92.57;74180.78;5028632;28;20203;-82
2023/12/16 00:27:47;;;;;;;4.93;4.43;;;;;;;-143.21;92.71;74194.66;5026091;28;20199;-77
2023/12/16 00:30:14;;;;;;;4.40;3.87;;;;;;;-143.21;92.85;74220.44;5027563;28;20234;-77
2023/12/16 00:32:41;;;;;;;5.10;3.87;;;;;;;-143.21;92.11;74254.19;5027014;28;20235;-79
2023/12/16 00:35:08;;;;;;;3.93;3.37;;;;;;;-143.21;91.58;74279.97;5029856;28;20297;-79
2023/12/16 00:37:35;;;;;;;3.27;2.97;;;;;;;-143.21;92.60;74287.91;5027769;28;20214;-78
2023/12/16 00:40:02;;;;;;;3.83;2.73;;;;;;;-143.21;93.02;74260.13;5027408;28;20677;-79
2023/12/16 00:42:30;;;;;;;3.20;2.70;;;;;;;-143.21;93.75;74268.06;5026332;28;21432;-79
2023/12/16 00:44:58;;;;;;;3.30;2.63;;;;;;;-143.21;93.57;74295.84;5029006;28;20305;-79
2023/12/16 00:47:25;;;;;;;3.17;2.47;;;;;;;-143.21;94.19;74321.66;5025749;28;20882;-79
2023/12/16 00:49:52;;;;;;;3.30;2.50;;;;;;;-143.21;94.47;74305.78;5026996;28;20282;-79
2023/12/16 00:52:19;;;;;;;3.37;2.60;;;;;;;-143.21;94.70;74287.91;5024336;28;20234;-78
2023/12/16 00:54:46;;;;;;;3.20;2.50;;;;;;;-143.21;94.81;74272.03;5022761;28;20336;-79
2023/12/16 00:57:13;;;;;;;3.07;2.60;;;;;;;-143.21;94.50;74262.13;5025946;28;20658;-79
2023/12/16 00:59:40;;;;;;;2.60;2.30;;;;;;;-143.21;94.36;74260.13;5025305;28;20586;-79
2023/12/16 01:02:08;;;;;;;4.30;2.73;;;;;;;-143.21;93.93;74260.13;5024938;28;20206;-79
2023/12/16 01:04:34;;;;;;;2.80;2.43;;;;;;;-143.21;93.19;74250.22;5023922;28;20207;-79
2023/12/16 01:07:02;;;;;;;4.40;2.40;;;;;;;-143.21;92.81;74268.06;5025820;28;20202;-79
2023/12/16 01:09:29;;;;;;;3.13;2.63;;;;;;;-143.21;92.47;74313.72;5022588;28;20203;-79
2023/12/16 01:11:56;;;;;;;3.23;2.40;;;;;;;-143.21;92.51;74343.47;5023400;28;20207;-78
2023/12/16 01:14:23;;;;;;;3.37;2.70;;;;;;;-143.21;93.31;74357.38;5024226;28;20222;-79
2023/12/16 01:16:49;;;;;;;5.17;3.23;;;;;;;-143.21;93.89;74341.50;5022825;28;20225;-79
2023/12/16 01:19:18;;;;;;;5.70;4.40;;;;;;;-143.21;94.12;74327.59;5026593;28;20256;-79
2023/12/16 01:21:45;;;;;;;5.93;4.87;;;;;;;-143.21;94.42;74315.69;5024803;28;20265;-79
2023/12/16 01:24:11;;;;;;;5.53;4.60;;;;;;;-143.21;94.62;74297.84;5025020;28;20203;-78
2023/12/16 01:26:38;;;;;;;5.13;4.40;;;;;;;-143.21;94.44;74293.88;5025757;28;20210;-77
2023/12/16 01:29:05;;;;;;;5.40;4.43;;;;;;;-143.21;93.73;74279.97;5025315;28;20214;-78
2023/12/16 01:31:32;;;;;;;4.47;3.80;;;;;;;-143.21;92.89;74270.06;5021607;28;20203;-78
2023/12/16 01:33:59;;;;;;;4.90;3.57;;;;;;;-143.21;92.55;74274.03;5024908;28;20253;-78
2023/12/16 01:36:27;;;;;;;3.30;2.87;;;;;;;-143.21;92.59;74283.94;5022310;28;20203;-77
2023/12/16 01:38:54;;;;;;;3.60;2.63;;;;;;;-143.21;92.37;74278.00;5023594;28;20199;-78
2023/12/16 01:41:21;;;;;;;3.43;3.00;;;;;;;-143.21;91.78;74268.06;5026522;28;20260;-78
2023/12/16 01:43:48;;;;;;;4.40;3.20;;;;;;;-143.21;91.29;74272.03;5025444;28;20206;-78
2023/12/16 01:46:15;;;;;;;4.80;3.80;;;;;;;-143.21;91.36;74270.06;5025392;28;20210;-77
2023/12/16 01:48:42;;;;;;;4.07;3.40;;;;;;;-143.21;91.98;74307.75;5025527;28;20202;-78
2023/12/16 01:51:09;;;;;;;4.87;3.33;;;;;;;-143.21;91.77;74359.34;5028170;28;20658;-78
2023/12/16 01:53:39;;;;;;;4.43;3.90;;;;;;;-143.21;92.33;74383.16;5025371;28;20222;-77
2023/12/16 01:56:07;;;;;;;5.53;3.70;;;;;;;-143.21;92.86;74389.13;5023025;28;20620;-78
2023/12/16 01:58:35;;;;;;;4.57;3.47;;;;;;;-143.21;93.63;74369.28;5026007;28;20206;-77
2023/12/16 02:01:03;;;;;;;4.67;3.80;;;;;;;-143.21;93.92;74355.38;5026687;28;20685;-77
2023/12/16 02:03:31;;;;;;;5.20;4.13;;;;;;;-143.21;94.02;74347.44;5026725;28;20697;-77
2023/12/16 02:05:58;;;;;;;5.50;4.47;;;;;;;-143.21;93.86;74335.53;5026024;28;20214;-77
2023/12/16 02:08:25;;;;;;;6.60;5.37;;;;;;;-143.21;93.88;74327.59;5026091;28;20211;-77
2023/12/16 02:10:53;;;;;;;9.43;6.47;;;;;;;-143.21;93.37;74325.63;5025751;28;20268;-77
2023/12/16 02:13:23;;;;;;;8.73;6.73;;;;;;;-143.21;92.77;74319.66;5027758;28;20230;-77
2023/12/16 02:15:49;;;;;;;8.60;6.30;;;;;;;-143.21;92.67;74329.59;5025488;28;20206;-77
2023/12/16 02:18:16;;;;;;;8.37;6.53;;;;;;;-143.21;92.64;74333.56;5024801;28;20214;-77
2023/12/16 02:20:43;;;;;;;6.50;5.10;;;;;;;-143.21;92.77;74331.56;5025400;28;20230;-77
2023/12/16 02:23:15;;;;;;;5.23;4.30;;;;;;;-143.21;92.41;74333.56;5027030;28;20209;-78
2023/12/16 02:25:42;;;;;;;6.47;4.80;;;;;;;-143.21;92.10;74321.66;5027711;28;20260;-78
2023/12/16 02:28:09;;;;;;;5.00;4.43;;;;;;;-143.21;91.50;74323.63;5024843;28;20206;-78
2023/12/16 02:30:36;;;;;;;5.63;4.30;;;;;;;-143.21;91.85;74327.59;5022339;28;20245;-77
2023/12/16 02:33:03;;;;;;;5.17;4.03;;;;;;;-143.21;92.32;74333.56;5024728;28;20227;-78
2023/12/16 02:35:30;;;;;;;5.40;4.27;;;;;;;-143.21;92.49;74381.19;5027308;28;20736;-77
2023/12/16 02:37:57;;;;;;;5.13;3.90;;;;;;;-143.21;92.26;74434.75;5024644;28;20210;-77
2023/12/16 02:40:25;;;;;;;3.67;3.07;;;;;;;-143.21;93.36;74444.69;5024422;28;20203;-77
2023/12/16 02:42:52;;;;;;;3.70;2.80;;;;;;;-143.21;94.23;74422.84;5024940;28;20217;-77
2023/12/16 02:45:19;;;;;;;3.80;3.00;;;;;;;-143.21;94.22;74414.91;5024702;28;20195;-77
2023/12/16 02:47:45;;;;;;;3.40;2.60;;;;;;;-143.21;94.47;74406.97;5026736;28;20294;-77
2023/12/16 02:50:12;;;;;;;3.03;2.73;;;;;;;-143.21;95.01;74397.06;5024397;28;20206;-77
2023/12/16 02:52:39;;;;;;;3.00;2.70;;;;;;;-143.21;94.80;74383.16;5024644;28;20195;-77
2023/12/16 02:55:06;;;;;;;3.60;2.40;;;;;;;-143.21;94.65;74375.22;5024508;28;21027;-77
2023/12/16 02:57:34;;;;;;;2.67;2.47;;;;;;;-143.21;94.23;74383.16;5027553;28;20207;-77
2023/12/16 03:00:01;;;;;;;2.93;2.63;;;;;;;-143.21;93.78;74373.25;5024495;28;20649;-78
2023/12/16 03:02:28;;;;;;;3.93;3.23;;;;;;;-143.21;93.72;74389.13;5025074;28;20210;-77
2023/12/16 03:04:55;;;;;;;3.27;2.90;;;;;;;-143.21;93.87;74373.25;5025714;28;20202;-77
2023/12/16 03:07:21;;;;;;;5.10;2.80;;;;;;;-143.21;93.26;74361.34;5029854;28;20482;-78
2023/12/16 03:09:51;;;;;;;3.23;2.27;;;;;;;-143.21;93.42;74375.22;5029393;28;20222;-78
2023/12/16 03:12:18;;;;;;;2.67;2.40;;;;;;;-143.21;93.33;74363.31;5028592;28;20202;-78
2023/12/16 03:14:46;;;;;;;2.80;2.47;;;;;;;-143.21;93.01;74357.38;5028081;28;20242;-78
2023/12/16 03:17:15;;;;;;;2.40;2.20;;;;;;;-143.21;92.60;74359.34;5028423;28;20211;-78
2023/12/16 03:19:43;;;;;;;2.27;2.07;;;;;;;-143.21;92.47;74359.34;5028966;28;20196;-78
2023/12/16 03:22:10;;;;;;;2.43;1.90;;;;;;;-143.21;92.45;74397.06;5028295;28;20209;-78
2023/12/16 03:24:37;;;;;;;2.50;2.20;;;;;;;-143.21;92.37;74434.75;5025129;28;20210;-77
2023/12/16 03:27:04;;;;;;;2.17;1.93;;;;;;;-143.21;92.91;74440.72;5025297;28;20207;-78
2023/12/16 03:29:31;;;;;;;2.87;2.10;;;;;;;-143.21;93.86;74432.78;5030318;28;20791;-78
2023/12/16 03:31:59;;;;;;;2.70;2.20;;;;;;;-143.21;94.32;74418.88;5029209;28;20751;-78
2023/12/16 03:34:26;;;;;;;2.33;2.13;;;;;;;-143.21;94.26;74408.97;5026762;28;21611;-78
2023/12/16 03:36:52;;;;;;;3.03;2.30;;;;;;;-143.21;93.91;74393.09;5028142;28;20574;-78
2023/12/16 03:39:20;;;;;;;2.70;2.10;;;;;;;-143.21;93.68;74389.13;5024849;28;20213;-78
2023/12/16 03:41:47;;;;;;;2.23;2.03;;;;;;;-143.21;93.70;74389.13;5030058;28;20210;-78
2023/12/16 03:44:14;;;;;;;1.97;1.83;;;;;;;-143.21;93.18;74387.13;5027615;28;20199;-79
2023/12/16 03:46:40;;;;;;;2.10;1.90;;;;;;;-143.21;93.07;74393.09;5027198;28;20214;-79
2023/12/16 03:49:09;;;;;;;3.17;1.90;;;;;;;-143.21;92.92;74391.09;5025486;28;20686;-79
2023/12/16 03:51:37;;;;;;;2.13;1.93;;;;;;;-143.21;92.78;74393.09;5028283;28;20199;-79
2023/12/16 03:54:04;;;;;;;2.27;1.90;;;;;;;-143.21;92.70;74395.06;5028179;28;20265;-78
2023/12/16 03:56:31;;;;;;;2.00;1.80;;;;;;;-143.21;92.90;74391.09;5027632;28;20729;-78
2023/12/16 03:58:58;;;;;;;3.93;2.07;;;;;;;-143.21;92.15;74391.09;5025601;28;20298;-78
2023/12/16 04:01:24;;;;;;;2.83;1.80;;;;;;;-143.21;91.08;74406.97;5026977;28;20205;-77
2023/12/16 04:03:51;;;;;;;2.87;2.13;;;;;;;-143.21;91.29;74405.00;5028289;28;20190;-77
2023/12/16 04:06:19;;;;;;;2.83;2.20;;;;;;;-143.21;90.81;74399.03;5026994;28;20211;-77
2023/12/16 04:08:46;;;;;;;2.50;2.00;;;;;;;-143.21;90.58;74410.94;5027446;28;20689;-78
2023/12/16 04:11:13;;;;;;;2.63;2.13;;;;;;;-143.21;89.81;74446.66;5026651;28;20620;-79
2023/12/16 04:13:40;;;;;;;3.40;2.07;;;;;;;-143.21;89.27;74486.34;5029862;28;20567;-78
2023/12/16 04:16:07;;;;;;;2.63;2.03;;;;;;;-143.21;90.09;74486.34;5027241;28;20203;-78
2023/12/16 04:18:34;;;;;;;3.23;2.10;;;;;;;-143.21;90.76;74482.38;5028042;28;20572;-78
2023/12/16 04:21:01;;;;;;;2.00;1.77;;;;;;;-143.21;90.94;74472.47;5027429;28;20199;-78
2023/12/16 04:23:30;;;;;;;2.00;1.80;;;;;;;-143.21;90.08;74464.53;5028669;28;20223;-78
2023/12/16 04:25:56;;;;;;;3.03;2.00;;;;;;;-143.21;89.11;74468.50;5029065;28;20210;-78
2023/12/16 04:28:23;;;;;;;1.83;1.73;;;;;;;-143.21;89.05;74466.50;5025233;28;20276;-78
2023/12/16 04:30:50;;;;;;;2.27;1.80;;;;;;;-143.21;88.24;74464.53;5026478;28;20604;-76
2023/12/16 04:33:17;;;;;;;2.67;1.93;;;;;;;-143.21;87.60;74460.56;5025665;28;20593;-77
2023/12/16 04:35:43;;;;;;;1.93;1.73;;;;;;;-143.21;87.04;74460.56;5026547;28;20207;-77
2023/12/16 04:38:10;;;;;;;2.37;1.90;;;;;;;-143.21;86.69;74458.56;5025970;28;20210;-76
2023/12/16 04:40:38;;;;;;;2.03;1.70;;;;;;;-143.21;86.80;74464.53;5026095;28;20198;-76
2023/12/16 04:43:05;;;;;;;3.43;2.17;;;;;;;-143.21;86.73;74486.34;5023742;28;20210;-76
2023/12/16 04:45:32;;;;;;;1.77;1.60;;;;;;;-143.21;86.88;74468.50;5029011;28;20274;-76
2023/12/16 04:47:59;;;;;;;1.67;1.57;;;;;;;-143.21;85.69;74470.47;5027753;28;20674;-76
2023/12/16 04:50:26;;;;;;;2.43;1.90;;;;;;;-143.21;85.47;74486.34;5026656;28;20686;-77
2023/12/16 04:52:52;;;;;;;2.50;1.80;;;;;;;-143.21;85.56;74486.34;5026986;28;20203;-76
2023/12/16 04:55:19;;;;;;;1.97;1.63;;;;;;;-143.21;85.49;74494.28;5026969;28;20288;-76
2023/12/16 04:57:47;;;;;;;8.17;1.80;;;;;;;-143.21;86.84;74504.22;5029336;28;20211;-76
2023/12/16 05:00:15;;;;;;;3.00;1.87;;;;;;;-143.21;86.08;74526.03;5026808;28;20313;-76
2023/12/16 05:02:42;;;;;;;1.70;1.60;;;;;;;-143.21;87.16;74565.72;5026579;28;20199;-77
2023/12/16 05:05:09;;;;;;;2.00;1.80;;;;;;;-143.21;87.64;74551.84;5026720;28;20298;-78
2023/12/16 05:07:37;;;;;;;2.37;1.70;;;;;;;-143.21;87.30;74547.88;5028601;28;20206;-78
2023/12/16 05:10:10;;;;;;;2.53;1.90;;;;;;;-143.21;87.04;74541.91;5027307;28;20210;-77
2023/12/16 05:12:37;;;;;;;3.00;2.00;;;;;;;-143.21;86.72;74547.88;5027209;28;20205;-78
2023/12/16 05:15:06;;;;;;;2.43;2.10;;;;;;;-143.21;86.33;74541.91;5023040;28;20225;-78
2023/12/16 05:17:33;;;;;;;2.20;2.00;;;;;;;-143.21;86.30;74541.91;5025311;28;20210;-77
2023/12/16 05:20:00;;;;;;;3.33;1.87;;;;;;;-143.21;85.93;74537.94;5028709;28;20207;-78
2023/12/16 05:22:27;;;;;;;4.33;2.73;;;;;;;-143.21;86.07;74526.03;5026296;28;20214;-77
2023/12/16 05:24:53;;;;;;;8.23;2.50;;;;;;;-143.21;86.07;74522.06;5026058;28;20211;-77
2023/12/16 05:27:20;;;;;;;2.77;1.83;;;;;;;-143.21;85.81;74526.03;5025563;28;20272;-78
2023/12/16 05:29:47;;;;;;;2.30;1.80;;;;;;;-143.21;85.99;74516.13;5028628;28;20214;-78
2023/12/16 05:32:15;;;;;;;1.97;1.70;;;;;;;-143.21;85.93;74508.19;5022615;28;20190;-79
2023/12/16 05:34:42;;;;;;;1.60;1.50;;;;;;;-143.21;86.09;74512.16;5022102;28;20229;-77
2023/12/16 05:37:09;;;;;;;1.50;1.40;;;;;;;-143.21;85.85;74514.13;5024380;28;20558;-77
2023/12/16 05:39:36;;;;;;;1.60;1.50;;;;;;;-143.21;85.64;74514.13;5026537;28;20209;-79
2023/12/16 05:42:03;;;;;;;1.50;1.40;;;;;;;-143.21;86.00;74512.16;5025165;28;20202;-78
2023/12/16 05:44:29;;;;;;;1.90;1.57;;;;;;;-143.21;87.67;74545.88;5023416;28;20649;-78
2023/12/16 05:46:56;;;;;;;1.57;1.47;;;;;;;-143.21;88.22;74591.53;5022325;28;20812;-79
2023/12/16 05:49:25;;;;;;;1.70;1.60;;;;;;;-143.21;89.30;74603.44;5024261;28;20214;-78
2023/12/16 05:51:51;;;;;;;2.20;1.63;;;;;;;-143.21;89.87;74581.59;5028742;28;20199;-78
2023/12/16 05:54:18;;;;;;;2.57;2.00;;;;;;;-143.21;90.38;74575.66;5024181;28;20271;-79
2023/12/16 05:56:45;;;;;;;4.37;1.90;;;;;;;-143.21;90.62;74565.72;5018587;28;20198;-78
2023/12/16 05:59:12;;;;;;;3.53;2.40;;;;;;;-143.21;90.52;74545.88;5020393;28;20702;-79
2023/12/16 06:01:39;;;;;;;3.47;2.70;;;;;;;-143.21;90.58;74541.91;5021703;28;20199;-78
2023/12/16 06:04:06;;;;;;;3.30;2.30;;;;;;;-143.21;90.83;74528.03;5020666;28;20215;-79
2023/12/16 06:06:38;;;;;;;3.00;2.37;;;;;;;-143.21;91.21;74524.06;5025060;28;20202;-78
2023/12/16 06:09:08;;;;;;;4.17;2.80;;;;;;;-143.21;90.40;74526.03;5023347;28;20285;-80
2023/12/16 06:11:34;;;;;;;5.00;2.70;;;;;;;-143.21;89.69;74516.13;5025628;28;20206;-80
2023/12/16 06:14:01;;;;;;;3.83;2.90;;;;;;;-143.21;88.55;74502.22;5028398;28;20289;-79
2023/12/16 06:16:33;;;;;;;4.23;3.10;;;;;;;-143.21;87.65;74504.22;5024197;28;21495;-79
2023/12/16 06:19:01;;;;;;;3.77;2.60;;;;;;;-143.21;87.00;74496.28;5024547;28;20203;-79
2023/12/16 06:21:29;;;;;;;2.80;2.30;;;;;;;-143.21;87.06;74508.19;5018571;28;20206;-78
2023/12/16 06:23:58;;;;;;;2.23;1.70;;;;;;;-143.21;86.88;74512.16;5023924;28;20258;-79
2023/12/16 06:26:25;;;;;;;3.33;2.10;;;;;;;-143.21;86.24;74506.19;5023000;28;20322;-79
2023/12/16 06:28:52;;;;;;;3.97;2.03;;;;;;;-143.21;85.43;74524.06;5024737;28;20588;-80
2023/12/16 06:31:25;;;;;;;2.30;1.90;;;;;;;-143.21;86.70;74549.84;5026460;28;20210;-83
2023/12/16 06:33:51;;;;;;;1.70;1.60;;;;;;;-143.21;86.14;74573.66;5026996;28;20874;-80
2023/12/16 06:36:18;;;;;;;1.70;1.60;;;;;;;-143.21;86.71;74623.28;5029108;28;20279;-79
2023/12/16 06:38:45;;;;;;;8.87;5.83;;;;;;;-143.21;87.92;74641.13;5023659;28;20202;-79
2023/12/16 06:41:13;;;;;;;2.67;2.03;;;;;;;-143.21;88.61;74625.25;5029723;28;20293;-80
2023/12/16 06:43:40;;;;;;;2.30;1.93;;;;;;;-143.21;88.71;74619.31;5026856;28;20200;-76
2023/12/16 06:46:07;;;;;;;1.77;1.63;;;;;;;-143.21;88.63;74613.34;5027181;28;20665;-77
2023/12/16 06:48:35;;;;;;;2.20;1.80;;;;;;;-143.21;88.54;74593.50;5026972;28;20656;-77
2023/12/16 06:51:02;;;;;;;2.20;1.90;;;;;;;-143.21;88.28;74593.50;5025489;28;20197;-77
2023/12/16 06:53:30;;;;;;;4.23;2.30;;;;;;;-143.21;88.45;74589.53;5025404;28;20225;-77
2023/12/16 06:55:57;;;;;;;3.83;2.37;;;;;;;-143.21;88.92;74587.56;5026159;28;20960;-76
2023/12/16 06:58:25;;;;;;;4.17;2.70;;;;;;;-143.21;88.85;74589.53;5025814;28;20207;-76
2023/12/16 07:00:56;;;;;;;4.13;2.50;;;;;;;-143.21;88.85;74587.56;5022871;28;20285;-76
2023/12/16 07:03:23;;;;;;;3.33;2.60;;;;;;;-143.21;88.69;74583.59;5022423;28;20632;-76
2023/12/16 07:05:50;;;;;;;5.53;2.70;;;;;;;-143.21;88.82;74589.53;5025384;28;20199;-77
2023/12/16 07:08:20;;;;;;;6.80;2.50;;;;;;;-143.21;89.74;74589.53;5026383;28;20202;-77
2023/12/16 07:10:47;;;;;;;2.87;2.10;;;;;;;-143.21;89.88;74591.53;5029242;28;20553;-78
2023/12/16 07:13:14;;;;;;;2.63;2.37;;;;;;;-143.21;90.08;74587.56;5025863;28;20238;-77
2023/12/16 07:15:45;;;;;;;2.30;2.10;;;;;;;-143.21;89.58;74597.47;5026393;28;20233;-78
2023/12/16 07:18:12;;;;;;;2.57;2.30;;;;;;;-143.21;89.66;74603.44;5025690;28;21039;-78
2023/12/16 07:20:39;;;;;;;2.30;2.10;;;;;;;-143.21;90.56;74627.25;5026803;28;20194;-78
2023/12/16 07:23:05;;;;;;;5.67;2.30;;;;;;;-143.21;89.93;74664.97;5023954;28;20658;-77
2023/12/16 07:25:34;;;;;;;3.63;2.50;;;;;;;-143.21;90.80;74694.72;5024561;28;20206;-80
2023/12/16 07:28:01;;;;;;;2.80;2.33;;;;;;;-143.21;91.46;74688.78;5027756;28;20195;-81
2023/12/16 07:30:27;;;;;;;4.40;3.20;;;;;;;-143.21;92.41;74682.81;5024520;28;20238;-79
2023/12/16 07:32:56;;;;;;;4.63;2.93;;;;;;;-143.21;93.01;74666.94;5026573;28;20211;-80
2023/12/16 07:35:23;;;;;;;5.47;2.80;;;;;;;-143.21;93.36;74653.06;5023117;28;20250;-86
2023/12/16 07:37:50;;;;;;;3.17;2.13;;;;;;;-143.21;93.57;74633.19;5027605;28;20675;-75
2023/12/16 07:40:18;;;;;;;5.37;2.30;;;;;;;-143.21;93.52;74621.28;5026006;28;20728;-77
2023/12/16 07:42:44;;;;;;;4.50;2.23;;;;;;;-143.21;92.92;74617.31;5026502;28;20198;-80
2023/12/16 07:45:11;;;;;;;7.17;2.73;;;;;;;-143.21;92.85;74615.34;5031906;28;20211;-87
2023/12/16 07:47:39;;;;;;;3.67;2.80;;;;;;;-143.21;93.06;74595.50;5032902;28;20203;-88
2023/12/16 07:50:10;;;;;;;4.53;2.70;;;;;;;-143.21;92.86;74601.44;5031246;28;20205;-84
2023/12/16 07:52:37;;;;;;;5.00;3.17;;;;;;;-143.21;92.97;74601.44;5029082;28;20249;-84
2023/12/16 07:55:04;;;;;;;4.53;3.13;;;;;;;-143.21;92.68;74585.56;5031812;28;20223;-85
2023/12/16 07:57:31;;;;;;;3.27;2.60;;;;;;;-143.21;91.72;74575.66;5031215;28;20261;-85
2023/12/16 07:59:58;;;;;;;8.20;3.10;;;;;;;-143.21;91.32;74573.66;5031059;28;20211;-83
2023/12/16 08:02:25;;;;;;;5.10;2.97;;;;;;;-143.21;90.51;74583.59;5031146;28;20230;-89
2023/12/16 08:04:53;;;;;;;3.70;2.50;;;;;;;-143.21;90.24;74579.63;5041982;28;20629;-87
2023/12/16 08:07:23;;;;;;;3.40;2.47;;;;;;;-143.21;89.83;74589.53;5031840;28;20264;-82
2023/12/16 08:09:52;;;;;;;8.07;3.30;;;;;;;-143.21;89.67;74595.50;5029235;28;20199;-87
2023/12/16 08:12:19;;;;;;;5.83;3.03;;;;;;;-143.21;89.19;74589.53;5030711;28;20199;-84
2023/12/16 08:14:50;;;;;;;4.40;3.20;;;;;;;-143.21;89.00;74595.50;5032181;28;20236;-82
2023/12/16 08:17:16;;;;;;;3.30;2.40;;;;;;;-143.21;88.99;74597.47;5030276;28;22218;-80
2023/12/16 08:19:43;;;;;;;4.37;2.83;;;;;;;-143.21;89.18;74605.41;5038057;28;20198;-81
2023/12/16 08:22:10;;;;;;;7.20;3.00;;;;;;;-143.21;88.94;74609.38;5032114;28;20284;-81
2023/12/16 08:24:41;;;;;;;4.00;2.90;;;;;;;-143.21;88.54;74601.44;5031713;28;20194;-82
2023/12/16 08:27:08;;;;;;;4.60;2.90;;;;;;;-143.21;88.49;74601.44;5040141;28;20217;-80
2023/12/16 08:29:34;;;;;;;4.87;2.93;;;;;;;-143.21;88.38;74607.41;5038295;28;20361;-84
2023/12/16 08:32:01;;;;;;;3.87;3.10;;;;;;;-143.21;88.53;74617.31;5035180;28;20195;-83
2023/12/16 08:34:31;;;;;;;3.47;2.50;;;;;;;-143.21;88.77;74615.34;5030781;28;20289;-82
2023/12/16 08:36:58;;;;;;;3.43;2.40;;;;;;;-143.21;88.55;74611.38;5031756;28;20253;-82
2023/12/16 08:39:25;;;;;;;8.47;2.93;;;;;;;-143.21;88.30;74631.22;5030122;28;20278;-85
2023/12/16 08:41:53;;;;;;;3.63;2.57;;;;;;;-143.21;88.49;74621.28;5025287;28;20557;-77
2023/12/16 08:44:20;;;;;;;3.83;2.40;;;;;;;-143.21;88.45;74615.34;5030289;28;20651;-85
2023/12/16 08:46:47;;;;;;;3.53;2.47;;;;;;;-143.21;88.23;74609.38;5037552;28;20188;-82
2023/12/16 08:49:14;;;;;;;5.03;3.03;;;;;;;-143.21;88.21;74615.34;5038668;28;20199;-82
2023/12/16 08:51:41;;;;;;;5.73;3.07;;;;;;;-143.21;88.62;74631.22;5040061;28;20292;-82
2023/12/16 08:54:08;;;;;;;6.10;3.03;;;;;;;-143.21;88.45;74635.19;5039875;28;20203;-82
2023/12/16 08:56:35;;;;;;;4.67;3.00;;;;;;;-143.21;88.81;74627.25;5040291;28;20222;-82
2023/12/16 08:59:03;;;;;;;3.70;2.90;;;;;;;-143.21;89.14;74627.25;5033092;28;20206;-82
2023/12/16 09:01:30;;;;;;;7.87;2.90;;;;;;;-143.21;89.50;74611.38;5039142;28;20214;-81
2023/12/16 09:03:57;;;;;;;3.60;2.50;;;;;;;-143.21;89.27;74607.41;5042360;28;20211;-82
2023/12/16 09:06:24;;;;;;;6.13;3.20;;;;;;;-143.21;89.72;74601.44;5042646;28;20202;-82
2023/12/16 09:08:51;;;;;;;3.73;2.60;;;;;;;-143.21;90.16;74593.50;5036992;28;20201;-81
2023/12/16 09:11:18;;;;;;;5.20;2.70;;;;;;;-143.21;91.18;74573.66;5035809;28;20207;-82
2023/12/16 09:13:45;;;;;;;4.47;3.20;;;;;;;-143.21;91.30;74567.72;5023838;28;20227;-82
2023/12/16 09:16:13;;;;;;;3.93;2.90;;;;;;;-143.21;90.70;74545.88;5028704;28;20306;-81
2023/12/16 09:18:40;;;;;;;4.90;2.80;;;;;;;-143.21;89.73;74549.84;5029553;28;20210;-82
2023/12/16 09:21:07;;;;;;;3.80;2.70;;;;;;;-143.21;88.56;74537.94;5030084;28;20677;-81
2023/12/16 09:23:35;;;;;;;5.57;2.87;;;;;;;-143.21;87.87;74545.88;5029874;28;20254;-82
2023/12/16 09:26:05;;;;;;;3.80;3.00;;;;;;;-143.21;87.62;74541.91;5029449;28;20751;-80
2023/12/16 09:28:30;;;;;;;4.07;3.00;;;;;;;-143.21;87.61;74535.97;5029545;28;20282;-82
2023/12/16 09:30:57;;;;;;;6.93;3.00;;;;;;;-143.21;87.32;74528.03;5029702;28;20211;-82
2023/12/16 09:33:25;;;;;;;6.20;3.60;;;;;;;-143.21;86.64;74520.09;5029575;28;20202;-82
2023/12/16 09:35:52;;;;;;;5.00;3.47;;;;;;;-143.21;87.16;74522.06;5028683;28;20627;-81
2023/12/16 09:38:19;;;;;;;3.57;2.60;;;;;;;-143.21;86.80;74510.16;5028845;28;20200;-82
2023/12/16 09:40:46;;;;;;;3.43;2.50;;;;;;;-143.21;86.38;74510.16;5029221;28;20215;-81
2023/12/16 09:43:16;;;;;;;2.97;2.40;;;;;;;-143.21;85.99;74510.16;5030057;28;20199;-81
2023/12/16 09:45:46;;;;;;;3.30;2.60;;;;;;;-143.21;85.79;74502.22;5035732;28;20759;-84
2023/12/16 09:48:16;;;;;;;4.07;2.63;;;;;;;-143.21;86.07;74498.25;5037586;28;20204;-83
2023/12/16 09:50:45;;;;;;;3.53;2.83;;;;;;;-143.21;86.04;74492.31;5036469;28;20207;-83
2023/12/16 09:53:12;;;;;;;5.73;3.50;;;;;;;-143.21;85.99;74504.22;5028572;28;20203;-83
2023/12/16 09:55:41;;;;;;;4.13;2.80;;;;;;;-143.21;86.36;74498.25;5030307;28;20226;-82
2023/12/16 09:58:12;;;;;;;6.40;3.43;;;;;;;-143.21;86.14;74500.25;5029763;28;20199;-83
2023/12/16 10:00:46;;;;;;;4.00;2.57;;;;;;;-143.21;85.53;74490.31;5026078;28;20226;-82
2023/12/16 10:03:14;;;;;;;4.30;3.30;;;;;;;-143.21;85.63;74482.38;5030082;28;20289;-82
2023/12/16 10:05:42;;;;;;;3.77;2.80;;;;;;;-143.21;85.58;74486.34;5032384;28;20652;-82
2023/12/16 10:08:10;;;;;;;5.47;2.73;;;;;;;-143.21;84.54;74474.44;5030881;28;20264;-82
2023/12/16 10:10:37;;;;;;;3.10;2.80;;;;;;;-143.21;84.83;74470.47;5026679;28;20621;-82
2023/12/16 10:13:05;;;;;;;4.40;3.17;;;;;;;-143.21;85.06;74466.50;5034720;28;20597;-82
2023/12/16 10:15:34;;;;;;;3.83;2.87;;;;;;;-143.21;84.87;74450.63;5039202;28;20234;-82
2023/12/16 10:18:02;;;;;;;3.43;2.63;;;;;;;-143.21;84.16;74452.63;5046648;28;20640;-83
2023/12/16 10:20:29;;;;;;;6.23;2.80;;;;;;;-143.21;83.13;74448.66;5043609;28;21099;-83
2023/12/16 10:22:56;;;;;;;3.30;2.50;;;;;;;-143.21;83.22;74462.53;5038829;28;20202;-83
2023/12/16 10:25:25;;;;;;;3.53;2.80;;;;;;;-143.21;83.80;74454.59;5037527;28;20230;-82
2023/12/16 10:27:59;;;;;;;4.17;2.93;;;;;;;-143.21;83.40;74452.63;5044028;28;20214;-82
2023/12/16 10:30:26;;;;;;;5.47;3.23;;;;;;;-143.21;83.57;74450.63;5037403;28;20202;-83
2023/12/16 10:32:55;;;;;;;3.53;2.70;;;;;;;-143.21;83.07;74448.66;5036058;28;20209;-83
2023/12/16 10:35:23;;;;;;;5.97;2.70;;;;;;;-143.21;82.98;74444.69;5041978;28;20208;-82
2023/12/16 10:37:50;;;;;;;8.93;6.37;;;;;;;-143.21;82.59;74434.75;5044138;28;20273;-82
2023/12/16 10:40:18;;;;;;;3.50;2.50;;;;;;;-143.21;82.65;74434.75;5041843;28;20205;-82
2023/12/16 10:42:46;;;;;;;4.80;2.47;;;;;;;-143.21;82.94;74444.69;5036471;28;20703;-82
2023/12/16 10:45:13;;;;;;;3.27;2.37;;;;;;;-143.21;82.94;74434.75;5035871;28;20589;-84
2023/12/16 10:47:41;;;;;;;4.77;2.43;;;;;;;-143.21;82.81;74428.81;5031105;28;20213;-82
2023/12/16 10:50:09;;;;;;;4.20;3.40;;;;;;;-143.21;82.15;74422.84;5033520;28;20210;-81
2023/12/16 10:52:40;;;;;;;4.57;2.90;;;;;;;-143.21;81.88;74412.94;5041038;28;20206;-82
2023/12/16 10:55:13;;;;;;;4.00;2.77;;;;;;;-143.21;81.06;74412.94;5035739;28;20227;-81
2023/12/16 10:57:48;;;;;;;4.87;3.00;;;;;;;-143.21;81.10;74408.97;5034787;28;20656;-83
2023/12/16 11:00:21;;;;;;;5.13;2.40;;;;;;;-143.21;80.78;74403.00;5042845;28;20204;-81
2023/12/16 11:02:57;;;;;;;4.20;2.40;;;;;;;-143.21;81.60;74395.06;5043322;28;20220;-82
2023/12/16 11:05:29;;;;;;;4.13;2.60;;;;;;;-143.21;81.52;74377.22;5039359;28;20238;-82
2023/12/16 11:07:57;;;;;;;5.13;3.00;;;;;;;-143.21;80.92;74361.34;5039006;28;20397;-81
2023/12/16 11:10:24;;;;;;;6.13;3.23;;;;;;;-143.21;79.82;74349.44;5037080;28;20667;-82
2023/12/16 11:12:54;;;;;;;4.83;3.17;;;;;;;-143.21;79.37;74355.38;5042730;28;20242;-82
2023/12/16 11:15:21;;;;;;;4.67;3.27;;;;;;;-143.21;79.14;74347.44;5032007;28;20236;-82
2023/12/16 11:17:54;;;;;;;9.77;5.10;;;;;;;-143.21;77.56;74357.38;5033313;28;20296;-82